Time;durP1;ratioP1;P1;durP2;ratioP2;P2;SDS_P1;SDS_P2;PMS_P1;PMS_P2;Temp;Humidity;BMP_temperature;BMP_pressure;BME280_temperature;BME280_humidity;BME280_pressure;Samples;Min_cycle;Max_cycle;Signal;HPM_P1;HPM_P2
2022/04/25 00:02:12;;;;;;;17.87;5.63;;;18.80;99.90;;;;;;5072529;28;20451;-74
2022/04/25 00:04:39;;;;;;;19.97;5.87;;;18.80;99.90;;;;;;5072181;28;20526;-74
2022/04/25 00:07:06;;;;;;;18.40;5.30;;;18.70;99.90;;;;;;5072253;28;20854;-73
2022/04/25 00:09:33;;;;;;;19.10;5.43;;;18.60;99.90;;;;;;5072082;28;21025;-72
2022/04/25 00:12:00;;;;;;;14.97;5.87;;;18.60;99.90;;;;;;5072280;28;20475;-73
2022/04/25 00:14:28;;;;;;;17.57;5.67;;;18.50;99.90;;;;;;5071950;28;20499;-73
2022/04/25 00:16:56;;;;;;;19.40;6.33;;;18.20;99.90;;;;;;5072273;28;20941;-72
2022/04/25 00:19:23;;;;;;;18.33;5.90;;;18.20;99.90;;;;;;5071754;28;20472;-72
2022/04/25 00:21:51;;;;;;;15.17;7.13;;;18.20;99.90;;;;;;5071861;28;20453;-73
2022/04/25 00:24:18;;;;;;;21.00;6.27;;;18.20;99.90;;;;;;5072031;28;20485;-73
2022/04/25 00:26:45;;;;;;;17.80;6.00;;;18.10;99.90;;;;;;5072055;28;20543;-72
2022/04/25 00:29:12;;;;;;;19.57;6.10;;;18.10;99.90;;;;;;5072035;28;20456;-73
2022/04/25 00:31:42;;;;;;;21.20;5.87;;;18.10;99.90;;;;;;5071922;28;20481;-73
2022/04/25 00:34:09;;;;;;;18.63;6.50;;;18.10;99.90;;;;;;5071456;28;20977;-72
2022/04/25 00:36:36;;;;;;;16.23;5.63;;;17.80;99.90;;;;;;5071881;28;20499;-72
2022/04/25 00:39:03;;;;;;;14.30;5.97;;;17.70;99.90;;;;;;5071700;28;20460;-73
2022/04/25 00:41:31;;;;;;;31.90;6.60;;;17.70;99.90;;;;;;5071784;28;20456;-71
2022/04/25 00:43:58;;;;;;;19.43;6.17;;;17.80;99.90;;;;;;5071572;28;20473;-73
2022/04/25 00:46:27;;;;;;;25.00;6.27;;;17.90;99.90;;;;;;5071207;28;20449;-72
2022/04/25 00:48:55;;;;;;;13.17;6.37;;;18.00;99.90;;;;;;5071325;28;20967;-72
2022/04/25 00:51:23;;;;;;;17.70;5.90;;;18.10;99.90;;;;;;5071424;28;20993;-73
2022/04/25 00:53:50;;;;;;;10.40;5.37;;;18.10;99.90;;;;;;5071434;28;20908;-72
2022/04/25 00:56:18;;;;;;;15.93;5.87;;;18.00;99.90;;;;;;5071065;28;20449;-72
2022/04/25 00:58:46;;;;;;;18.30;6.60;;;17.90;99.90;;;;;;5071343;28;20884;-73
2022/04/25 01:01:13;;;;;;;11.60;5.70;;;17.90;99.90;;;;;;5071088;28;20464;-73
2022/04/25 01:03:41;;;;;;;20.70;7.60;;;17.90;99.90;;;;;;5071291;28;20480;-72
2022/04/25 01:06:10;;;;;;;15.37;6.40;;;17.90;99.90;;;;;;5071272;28;20496;-72
2022/04/25 01:08:37;;;;;;;19.33;6.70;;;17.90;99.90;;;;;;5071348;28;21261;-73
2022/04/25 01:11:05;;;;;;;18.53;7.07;;;17.90;99.90;;;;;;5071241;28;20464;-71
2022/04/25 01:13:33;;;;;;;21.77;7.20;;;17.90;99.90;;;;;;5070956;28;20473;-73
2022/04/25 01:16:00;;;;;;;16.67;6.57;;;17.60;99.90;;;;;;5071086;28;20449;-73
2022/04/25 01:18:27;;;;;;;12.70;6.17;;;17.50;99.90;;;;;;5071113;28;20518;-73
2022/04/25 01:20:57;;;;;;;13.73;7.20;;;17.60;99.90;;;;;;5071004;28;20476;-72
2022/04/25 01:28:55;;;;;;;20.80;7.60;;;17.40;99.90;;;;;;5070887;28;20912;-72
2022/04/25 01:31:22;;;;;;;21.67;7.30;;;17.30;99.90;;;;;;5070680;28;20461;-73
2022/04/25 01:33:49;;;;;;;18.63;7.73;;;17.30;99.90;;;;;;5070578;28;20877;-72
2022/04/25 01:36:16;;;;;;;16.60;8.27;;;17.30;99.90;;;;;;5070790;28;20446;-72
2022/04/25 01:38:45;;;;;;;21.80;7.43;;;17.30;99.90;;;;;;5070326;28;20951;-74
2022/04/25 01:41:12;;;;;;;15.00;6.90;;;17.30;99.90;;;;;;5070629;28;20453;-73
2022/04/25 01:43:39;;;;;;;15.20;8.40;;;17.30;99.90;;;;;;5070544;28;20473;-71
2022/04/25 01:46:06;;;;;;;14.60;6.90;;;17.40;99.90;;;;;;5070533;28;20965;-72
2022/04/25 01:48:33;;;;;;;12.10;6.40;;;17.30;99.90;;;;;;5070466;28;20460;-72
2022/04/25 01:51:01;;;;;;;13.47;7.03;;;17.30;99.90;;;;;;5069613;28;20488;-73
2022/04/25 01:53:29;;;;;;;19.27;8.50;;;17.20;99.90;;;;;;5069999;28;20491;-73
2022/04/25 01:55:57;;;;;;;14.80;7.60;;;17.10;99.90;;;;;;5069940;28;20476;-72
2022/04/25 01:58:25;;;;;;;20.23;9.33;;;17.10;99.90;;;;;;5070200;28;20464;-72
2022/04/25 02:00:52;;;;;;;20.20;7.30;;;17.10;99.90;;;;;;5070242;28;20461;-73
2022/04/25 02:03:19;;;;;;;17.43;8.30;;;17.10;99.90;;;;;;5069910;28;20479;-73
2022/04/25 02:05:46;;;;;;;16.93;7.40;;;17.30;99.90;;;;;;5070176;28;20492;-74
2022/04/25 02:08:14;;;;;;;14.17;8.10;;;17.30;99.90;;;;;;5069759;28;20464;-72
2022/04/25 02:11:19;;;;;;;22.77;7.30;;;17.20;99.90;;;;;;5070020;28;20456;-72
2022/04/25 02:13:29;;;;;;;18.07;8.00;;;17.20;99.90;;;;;;5069300;28;20538;-73
2022/04/25 02:15:58;;;;;;;16.40;7.43;;;17.20;99.90;;;;;;5069509;28;20437;-72
2022/04/25 02:18:26;;;;;;;16.40;8.23;;;17.10;99.90;;;;;;5069854;28;20453;-73
2022/04/25 02:20:53;;;;;;;14.47;8.13;;;16.90;99.90;;;;;;5069506;28;20528;-72
2022/04/25 02:23:20;;;;;;;17.90;7.83;;;16.90;99.90;;;;;;5069688;28;20837;-73
2022/04/25 02:25:47;;;;;;;18.33;7.87;;;16.90;99.90;;;;;;5069918;28;20517;-73
2022/04/25 02:28:14;;;;;;;17.03;8.03;;;16.80;99.90;;;;;;5069922;28;20449;-73
2022/04/25 02:30:43;;;;;;;17.60;7.43;;;16.60;99.90;;;;;;5069686;28;20511;-72
2022/04/25 02:33:10;;;;;;;16.37;7.03;;;16.60;99.90;;;;;;5069558;28;20560;-73
2022/04/25 02:35:37;;;;;;;17.23;7.63;;;16.70;99.90;;;;;;5069544;28;20459;-72
2022/04/25 02:38:04;;;;;;;22.20;7.67;;;16.60;99.90;;;;;;5069778;28;20529;-71
2022/04/25 02:40:31;;;;;;;17.03;7.70;;;16.70;99.90;;;;;;5069753;28;20453;-73
2022/04/25 02:42:58;;;;;;;17.50;7.50;;;16.60;99.90;;;;;;5069254;28;20928;-74
2022/04/25 02:45:25;;;;;;;12.53;6.47;;;16.70;99.90;;;;;;5069284;28;20959;-72
2022/04/25 02:47:54;;;;;;;16.40;6.63;;;16.70;99.90;;;;;;5069570;28;20499;-73
2022/04/25 02:50:21;;;;;;;15.50;7.67;;;16.60;99.90;;;;;;5069153;28;20488;-71
2022/04/25 02:52:51;;;;;;;21.40;9.57;;;16.60;99.90;;;;;;5069420;28;21017;-72
2022/04/25 02:55:18;;;;;;;20.67;10.13;;;16.70;99.90;;;;;;5069523;28;20456;-72
2022/04/25 02:57:45;;;;;;;15.10;7.17;;;16.70;99.90;;;;;;5069079;28;20472;-72
2022/04/25 03:00:13;;;;;;;14.37;7.27;;;16.70;99.90;;;;;;5069332;28;20457;-72
2022/04/25 03:02:40;;;;;;;16.10;9.20;;;16.40;99.90;;;;;;5067770;28;20449;-72
2022/04/25 03:05:09;;;;;;;18.87;7.13;;;16.40;99.90;;;;;;5069155;28;20592;-73
2022/04/25 03:07:36;;;;;;;15.83;8.40;;;16.30;99.90;;;;;;5069321;28;20526;-72
2022/04/25 03:10:04;;;;;;;20.37;7.27;;;16.10;99.90;;;;;;5069528;28;20514;-72
2022/04/25 03:12:38;;;;;;;18.67;8.37;;;16.10;99.90;;;;;;5069044;28;20453;-73
2022/04/25 03:15:06;;;;;;;18.43;7.13;;;16.30;99.90;;;;;;5069048;28;20448;-73
2022/04/25 03:17:33;;;;;;;16.87;7.33;;;16.30;99.90;;;;;;5069370;28;20461;-72
2022/04/25 03:20:00;;;;;;;14.27;7.60;;;16.40;99.90;;;;;;5069404;28;20456;-72
2022/04/25 03:22:29;;;;;;;12.53;7.17;;;16.40;99.90;;;;;;5069285;28;20453;-72
2022/04/25 03:24:56;;;;;;;23.20;8.63;;;16.30;99.90;;;;;;5069034;28;20485;-72
2022/04/25 03:27:23;;;;;;;19.30;6.80;;;16.30;99.90;;;;;;5068942;28;20965;-72
2022/04/25 03:29:50;;;;;;;16.77;8.17;;;16.40;99.90;;;;;;5069263;28;20497;-72
2022/04/25 03:32:17;;;;;;;19.93;8.63;;;16.30;99.90;;;;;;5069080;28;20453;-73
2022/04/25 03:34:44;;;;;;;19.87;8.67;;;16.30;99.90;;;;;;5072771;28;20465;-73
2022/04/25 03:37:13;;;;;;;17.10;7.13;;;16.20;99.90;;;;;;5073069;28;20453;-73
2022/04/25 03:39:41;;;;;;;17.90;7.87;;;16.20;99.90;;;;;;5072601;28;20459;-72
2022/04/25 03:42:08;;;;;;;13.97;7.43;;;16.20;99.90;;;;;;5072764;28;20464;-72
2022/04/25 03:44:35;;;;;;;15.00;8.70;;;16.10;99.90;;;;;;5072414;28;20473;-72
2022/04/25 03:47:03;;;;;;;19.03;8.00;;;16.00;99.90;;;;;;5072667;28;20956;-71
2022/04/25 03:49:30;;;;;;;16.33;7.63;;;16.00;99.90;;;;;;5072199;28;20460;-74
2022/04/25 03:51:57;;;;;;;16.00;7.83;;;15.90;99.90;;;;;;5072526;28;20485;-72
2022/04/25 03:57:13;;;;;;;18.40;7.47;;;16.00;99.90;;;;;;5072562;28;20441;-71
2022/04/25 03:59:40;;;;;;;14.00;7.60;;;15.80;99.90;;;;;;5072724;28;20531;-71
2022/04/25 04:02:07;;;;;;;13.20;7.50;;;15.70;99.90;;;;;;5072569;28;20874;-72
2022/04/25 04:04:34;;;;;;;18.07;7.90;;;15.70;99.90;;;;;;5072063;28;20465;-72
2022/04/25 04:07:02;;;;;;;19.23;7.03;;;15.70;99.90;;;;;;5072154;28;20496;-72
2022/04/25 04:09:49;;;;;;;20.17;8.60;;;15.70;99.90;;;;;;5072218;28;20481;-72
2022/04/25 04:12:19;;;;;;;19.27;7.47;;;15.70;99.90;;;;;;5072442;28;20453;-71
2022/04/25 04:14:47;;;;;;;20.60;8.20;;;15.90;99.90;;;;;;5071871;28;20481;-72
2022/04/25 04:17:14;;;;;;;22.27;7.37;;;16.00;99.90;;;;;;5072106;28;20453;-71
2022/04/25 04:19:42;;;;;;;26.40;8.30;;;16.00;99.90;;;;;;5072095;28;20452;-72
2022/04/25 04:22:09;;;;;;;18.37;8.80;;;16.10;99.90;;;;;;5072017;28;20531;-72
2022/04/25 04:24:36;;;;;;;15.83;7.77;;;16.10;99.90;;;;;;5072013;28;20473;-69
2022/04/25 04:27:04;;;;;;;17.63;8.20;;;16.00;99.90;;;;;;5071472;28;20526;-69
2022/04/25 04:29:34;;;;;;;17.87;8.30;;;16.10;99.90;;;;;;5071636;28;20485;-72
2022/04/25 04:32:02;;;;;;;23.77;8.63;;;16.00;99.90;;;;;;5071916;28;20484;-71
2022/04/25 04:34:29;;;;;;;18.80;8.50;;;16.00;99.90;;;;;;5071690;28;20449;-72
2022/04/25 04:36:57;;;;;;;23.30;9.00;;;15.90;99.90;;;;;;5071778;28;20506;-71
2022/04/25 04:39:24;;;;;;;20.43;8.90;;;15.80;99.90;;;;;;5071958;28;20546;-72
2022/04/25 04:41:51;;;;;;;18.33;8.70;;;15.90;99.90;;;;;;5071557;28;20531;-72
2022/04/25 04:44:18;;;;;;;21.03;8.77;;;15.80;99.90;;;;;;5071121;28;20795;-72
2022/04/25 04:46:47;;;;;;;15.83;9.07;;;15.90;99.90;;;;;;5071214;28;20488;-72
2022/04/25 04:49:14;;;;;;;19.90;8.50;;;16.00;99.90;;;;;;5071790;28;20461;-73
2022/04/25 04:51:41;;;;;;;17.80;8.90;;;16.00;99.90;;;;;;5071390;28;20801;-73
2022/04/25 04:54:08;;;;;;;14.93;8.30;;;16.20;99.90;;;;;;5071430;28;20544;-74
2022/04/25 04:56:36;;;;;;;19.20;8.10;;;16.40;99.90;;;;;;5071259;28;20452;-74
2022/04/25 04:59:04;;;;;;;18.37;8.23;;;16.40;99.90;;;;;;5071286;28;20988;-73
2022/04/25 05:01:31;;;;;;;15.07;7.83;;;16.30;99.90;;;;;;5071236;28;20445;-74
2022/04/25 05:03:59;;;;;;;19.57;6.90;;;16.40;99.90;;;;;;5071366;28;20901;-71
2022/04/25 05:06:27;;;;;;;21.63;8.67;;;16.60;99.90;;;;;;5070745;28;20512;-71
2022/04/25 05:08:54;;;;;;;20.90;8.30;;;16.60;99.90;;;;;;5071241;28;20961;-71
2022/04/25 05:11:21;;;;;;;22.27;7.40;;;16.80;99.90;;;;;;5070882;28;20514;-74
2022/04/25 05:13:49;;;;;;;17.27;7.73;;;16.90;99.90;;;;;;5070890;28;20469;-74
2022/04/25 05:16:16;;;;;;;15.70;7.03;;;16.70;99.90;;;;;;5071029;28;20484;-72
2022/04/25 05:18:44;;;;;;;17.03;9.33;;;16.60;99.90;;;;;;5071152;28;20452;-74
2022/04/25 05:21:13;;;;;;;16.53;8.80;;;16.70;99.90;;;;;;5070469;28;20465;-71
2022/04/25 05:23:41;;;;;;;23.17;9.43;;;16.50;99.90;;;;;;5070868;28;20515;-73
2022/04/25 05:26:09;;;;;;;20.27;8.47;;;16.70;99.90;;;;;;5070544;28;20808;-71
2022/04/25 05:28:36;;;;;;;16.77;8.20;;;16.80;99.90;;;;;;5070839;28;20464;-73
2022/04/25 05:31:03;;;;;;;17.80;8.23;;;16.80;99.90;;;;;;5070643;28;20452;-73
2022/04/25 05:33:30;;;;;;;23.00;8.97;;;17.10;99.90;;;;;;5070454;28;20559;-73
2022/04/25 05:35:57;;;;;;;15.40;7.60;;;17.10;99.90;;;;;;5070656;28;20449;-72
2022/04/25 05:38:26;;;;;;;18.60;8.13;;;17.20;99.90;;;;;;5070266;28;20488;-74
2022/04/25 05:40:53;;;;;;;16.43;8.80;;;17.20;99.90;;;;;;5070577;28;20832;-73
2022/04/25 05:43:20;;;;;;;24.17;9.53;;;17.20;99.90;;;;;;5070123;28;20469;-73
2022/04/25 05:45:48;;;;;;;14.97;7.70;;;17.40;99.90;;;;;;5070430;28;20526;-75
2022/04/25 05:53:46;;;;;;;18.77;8.00;;;18.10;99.90;;;;;;5070188;28;20502;-72
2022/04/25 05:56:13;;;;;;;15.93;7.13;;;18.20;99.90;;;;;;5069649;28;20453;-72
2022/04/25 05:58:40;;;;;;;26.90;7.90;;;18.10;99.90;;;;;;5070155;28;20908;-74
2022/04/25 06:01:07;;;;;;;23.93;7.37;;;18.20;99.90;;;;;;5069727;28;20460;-73
2022/04/25 06:03:34;;;;;;;18.20;7.60;;;18.40;99.90;;;;;;5069860;28;20477;-74
2022/04/25 06:06:01;;;;;;;20.37;8.20;;;18.50;99.90;;;;;;5070036;28;20477;-73
2022/04/25 06:08:28;;;;;;;22.97;8.17;;;18.60;99.90;;;;;;5070157;28;20453;-75
2022/04/25 06:10:57;;;;;;;21.03;7.27;;;18.70;99.90;;;;;;5070130;28;20453;-74
2022/04/25 06:13:25;;;;;;;17.87;7.83;;;18.80;99.90;;;;;;5070006;28;20605;-74
2022/04/25 06:15:52;;;;;;;15.37;6.30;;;19.00;99.90;;;;;;5069742;28;20449;-73
2022/04/25 06:18:20;;;;;;;15.17;5.93;;;19.30;99.90;;;;;;5069643;28;20475;-79
2022/04/25 06:20:48;;;;;;;20.23;5.87;;;19.50;99.90;;;;;;5070158;28;20483;-70
2022/04/25 06:23:15;;;;;;;15.43;5.17;;;19.70;99.90;;;;;;5069824;28;20473;-67
2022/04/25 06:25:42;;;;;;;16.80;5.20;;;19.70;99.90;;;;;;5069752;28;20864;-69
2022/04/25 06:28:10;;;;;;;19.00;6.40;;;20.00;99.90;;;;;;5069408;28;20930;-67
2022/04/25 06:30:37;;;;;;;19.87;6.07;;;20.20;99.90;;;;;;5069491;28;20452;-67
2022/04/25 06:33:04;;;;;;;17.77;5.20;;;20.40;99.90;;;;;;5069339;28;20472;-67
2022/04/25 06:35:31;;;;;;;17.33;4.80;;;20.50;99.90;;;;;;5069562;28;20449;-67
2022/04/25 06:37:58;;;;;;;13.93;5.70;;;20.70;99.90;;;;;;5069633;28;20441;-67
2022/04/25 06:40:26;;;;;;;14.37;5.93;;;20.80;99.90;;;;;;5069551;28;20448;-67
2022/04/25 06:42:53;;;;;;;16.73;6.20;;;21.00;99.90;;;;;;5069357;28;20472;-67
2022/04/25 06:45:22;;;;;;;25.17;6.43;;;21.10;99.90;;;;;;5069330;28;20445;-68
2022/04/25 06:47:50;;;;;;;14.93;5.87;;;21.20;99.90;;;;;;5069229;28;20491;-67
2022/04/25 06:50:17;;;;;;;13.30;6.17;;;21.20;99.90;;;;;;5068880;28;20508;-67
2022/04/25 06:52:45;;;;;;;16.20;5.40;;;21.20;99.90;;;;;;5069240;28;20449;-68
2022/04/25 06:55:12;;;;;;;16.83;5.30;;;21.40;99.90;;;;;;5069588;28;20461;-67
2022/04/25 06:57:39;;;;;;;16.97;5.33;;;21.60;99.90;;;;;;5069279;28;20457;-67
2022/04/25 07:00:08;;;;;;;17.43;5.73;;;21.60;99.90;;;;;;5069287;28;20960;-67
2022/04/25 07:02:37;;;;;;;16.03;5.90;;;21.70;99.90;;;;;;5069240;28;20502;-67
2022/04/25 07:05:06;;;;;;;15.93;6.10;;;21.90;99.90;;;;;;5069340;28;20453;-67
2022/04/25 07:07:33;;;;;;;15.67;5.67;;;22.00;99.90;;;;;;5071346;28;20523;-68
2022/04/25 07:10:00;;;;;;;16.03;5.80;;;22.30;99.90;;;;;;5073297;28;20824;-68
2022/04/25 07:12:28;;;;;;;14.93;4.70;;;22.40;99.90;;;;;;5073382;28;20456;-68
2022/04/25 07:14:55;;;;;;;14.83;4.60;;;22.50;99.40;;;;;;5073310;28;20484;-69
2022/04/25 07:17:22;;;;;;;20.77;6.10;;;22.60;99.20;;;;;;5073260;28;20449;-68
2022/04/25 07:19:51;;;;;;;18.10;5.60;;;22.70;99.10;;;;;;5072977;28;20456;-68
2022/04/25 07:30:34;;;;;;;17.37;6.67;;;23.40;95.50;;;;;;5073164;28;20962;-69
2022/04/25 07:33:01;;;;;;;24.47;5.77;;;23.50;95.40;;;;;;5072741;28;20473;-68
2022/04/25 07:35:30;;;;;;;16.43;6.50;;;23.70;95.00;;;;;;5072905;28;20510;-75
2022/04/25 07:37:57;;;;;;;14.43;5.37;;;23.90;93.50;;;;;;5072794;28;20462;-69
2022/04/25 07:40:25;;;;;;;25.10;5.33;;;24.10;92.10;;;;;;5072918;28;20445;-71
2022/04/25 07:42:55;;;;;;;15.43;5.80;;;24.20;90.80;;;;;;5072981;28;20476;-67
2022/04/25 07:45:23;;;;;;;19.33;6.10;;;24.30;91.40;;;;;;5072451;28;20449;-68
2022/04/25 07:47:50;;;;;;;16.37;5.70;;;24.50;90.70;;;;;;5072438;28;20936;-69
2022/04/25 07:50:23;;;;;;;17.90;4.90;;;24.70;90.10;;;;;;5072223;28;20584;-68
2022/04/25 07:52:52;;;;;;;16.20;5.00;;;24.80;86.90;;;;;;5072636;28;20472;-71
2022/04/25 07:55:19;;;;;;;21.63;5.60;;;24.70;85.80;;;;;;5072212;28;20536;-72
2022/04/25 07:57:46;;;;;;;15.77;5.00;;;24.90;84.00;;;;;;5072645;28;20445;-69
2022/04/25 08:00:14;;;;;;;21.73;5.77;;;25.00;84.30;;;;;;5072557;28;20523;-69
2022/04/25 08:02:41;;;;;;;16.70;6.30;;;25.20;82.80;;;;;;5073407;28;20463;-69
2022/04/25 08:05:09;;;;;;;20.80;5.47;;;25.40;81.40;;;;;;5072439;28;20506;-69
2022/04/25 08:07:37;;;;;;;19.70;5.67;;;25.70;78.50;;;;;;5072423;28;20485;-69
2022/04/25 08:10:06;;;;;;;17.03;4.20;;;25.60;70.60;;;;;;5072401;28;20444;-70
2022/04/25 08:18:04;;;;;;;18.03;4.90;;;24.80;61.40;;;;;;5072167;28;20421;-71
2022/04/25 08:20:34;;;;;;;20.90;4.80;;;24.80;62.40;;;;;;5071786;28;20453;-70
2022/04/25 08:23:02;;;;;;;16.63;4.10;;;24.70;59.70;;;;;;5071690;28;20476;-71
2022/04/25 08:25:31;;;;;;;20.30;4.60;;;24.70;60.60;;;;;;5071691;28;20452;-70
2022/04/25 08:27:58;;;;;;;25.43;5.10;;;24.70;59.90;;;;;;5071934;28;20558;-71
2022/04/25 08:30:25;;;;;;;14.10;5.00;;;24.70;58.80;;;;;;5071962;28;20472;-71
2022/04/25 08:32:55;;;;;;;19.20;4.53;;;24.70;57.90;;;;;;5071919;28;20534;-70
2022/04/25 08:35:22;;;;;;;12.67;4.20;;;24.90;56.80;;;;;;5071804;28;20860;-70
2022/04/25 08:37:49;;;;;;;17.50;4.23;;;25.30;56.00;;;;;;5071808;28;20452;-70
2022/04/25 08:40:17;;;;;;;15.20;3.90;;;25.40;54.90;;;;;;5071683;28;20453;-70
2022/04/25 08:42:45;;;;;;;16.97;4.43;;;25.60;54.80;;;;;;5071541;28;20506;-70
2022/04/25 08:45:14;;;;;;;16.83;5.00;;;25.80;53.90;;;;;;5071697;28;20449;-69
2022/04/25 08:47:47;;;;;;;20.63;5.03;;;25.70;53.40;;;;;;5071473;28;20481;-69
2022/04/25 08:50:18;;;;;;;19.10;4.37;;;25.70;53.30;;;;;;5071093;28;20546;-69
2022/04/25 08:52:46;;;;;;;16.30;4.60;;;26.00;52.80;;;;;;5071175;28;20460;-70
2022/04/25 08:55:13;;;;;;;22.73;4.97;;;26.00;53.00;;;;;;5071504;28;20773;-70
2022/04/25 08:57:42;;;;;;;22.43;5.10;;;26.10;52.00;;;;;;5071508;28;20457;-70
2022/04/25 09:00:12;;;;;;;18.33;4.70;;;26.00;49.70;;;;;;5071476;28;20455;-71
2022/04/25 09:02:39;;;;;;;16.10;4.73;;;25.50;50.60;;;;;;5071209;28;20460;-70
2022/04/25 09:05:07;;;;;;;20.20;4.40;;;25.40;50.30;;;;;;5071200;28;20457;-71
2022/04/25 09:07:37;;;;;;;19.87;4.70;;;25.10;50.00;;;;;;5071218;28;20488;-70
2022/04/25 09:10:08;;;;;;;16.90;3.70;;;24.90;49.70;;;;;;5071339;28;20452;-70
2022/04/25 09:12:35;;;;;;;17.67;3.90;;;24.50;50.80;;;;;;5070683;28;20540;-71
2022/04/25 09:15:03;;;;;;;23.20;4.03;;;24.70;51.20;;;;;;5070924;28;20929;-70
2022/04/25 09:17:32;;;;;;;16.17;3.67;;;24.80;49.60;;;;;;5070564;28;20476;-70
2022/04/25 09:20:00;;;;;;;15.80;3.80;;;25.00;49.80;;;;;;5070498;28;20949;-69
2022/04/25 09:22:32;;;;;;;18.73;4.10;;;25.30;48.80;;;;;;5070986;28;20449;-71
2022/04/25 09:25:06;;;;;;;16.03;3.90;;;25.50;49.20;;;;;;5071029;28;20556;-71
2022/04/25 09:27:33;;;;;;;15.23;3.50;;;25.60;49.30;;;;;;5070739;28;20492;-69
2022/04/25 09:30:16;;;;;;;19.33;3.50;;;25.50;47.80;;;;;;5069985;28;20537;-70
2022/04/25 09:32:45;;;;;;;14.67;3.30;;;25.00;49.60;;;;;;5068825;28;20547;-70
2022/04/25 09:35:32;;;;;;;14.50;3.37;;;25.10;49.60;;;;;;5070854;28;20457;-70
2022/04/25 09:38:01;;;;;;;18.00;4.10;;;25.40;49.50;;;;;;5070657;28;20914;-70
2022/04/25 09:40:30;;;;;;;15.73;3.57;;;25.50;48.20;;;;;;5070561;28;20943;-70
2022/04/25 09:43:06;;;;;;;15.43;3.37;;;25.60;49.70;;;;;;5070295;28;20567;-69
2022/04/25 09:45:34;;;;;;;10.70;3.10;;;25.70;48.90;;;;;;5070083;28;20449;-68
2022/04/25 09:48:03;;;;;;;20.50;4.70;;;25.90;48.50;;;;;;5070190;28;20484;-69
2022/04/25 09:50:30;;;;;;;12.07;3.50;;;26.00;48.60;;;;;;5069892;28;21046;-69
2022/04/25 09:52:59;;;;;;;21.10;3.27;;;26.30;48.40;;;;;;5070163;28;20481;-70
2022/04/25 09:55:28;;;;;;;20.53;4.00;;;26.30;47.30;;;;;;5070368;28;20483;-69
2022/04/25 09:57:55;;;;;;;17.17;5.27;;;26.40;47.00;;;;;;5070259;28;20933;-70
2022/04/25 10:00:33;;;;;;;13.30;4.50;;;26.60;47.20;;;;;;5070392;28;20463;-69
2022/04/25 10:03:02;;;;;;;18.70;3.40;;;27.00;45.70;;;;;;5069640;28;20468;-69
2022/04/25 10:05:41;;;;;;;13.17;2.90;;;26.40;44.70;;;;;;5070063;28;20456;-70
2022/04/25 10:08:10;;;;;;;15.97;4.00;;;26.30;44.90;;;;;;5069892;28;20904;-69
2022/04/25 10:10:41;;;;;;;11.57;2.70;;;26.30;42.90;;;;;;5070015;28;20481;-69
2022/04/25 10:13:10;;;;;;;10.03;3.13;;;26.10;42.50;;;;;;5069855;28;20469;-69
2022/04/25 10:15:39;;;;;;;14.00;3.40;;;26.10;44.10;;;;;;5069689;28;20452;-69
2022/04/25 10:18:09;;;;;;;10.93;2.90;;;26.10;43.80;;;;;;5069626;28;20557;-69
2022/04/25 10:20:37;;;;;;;12.43;2.80;;;26.20;42.60;;;;;;5069608;28;20457;-69
2022/04/25 10:23:05;;;;;;;17.50;2.47;;;26.10;42.80;;;;;;5069558;28;20509;-69
2022/04/25 10:25:33;;;;;;;12.10;1.97;;;26.10;41.10;;;;;;5069687;28;20453;-69
2022/04/25 10:28:05;;;;;;;12.37;3.13;;;26.10;41.10;;;;;;5069309;28;20485;-69
2022/04/25 10:30:35;;;;;;;16.10;3.23;;;26.10;42.00;;;;;;5069564;28;20488;-70
2022/04/25 10:33:22;;;;;;;19.43;3.57;;;25.90;43.00;;;;;;5069317;28;20476;-70
2022/04/25 10:35:51;;;;;;;11.00;1.90;;;25.50;38.50;;;;;;5069587;28;20456;-69
2022/04/25 10:38:51;;;;;;;11.90;2.43;;;25.70;39.40;;;;;;5069349;28;20452;-69
2022/04/25 10:44:47;;;;;;;10.23;2.83;;;26.50;38.30;;;;;;5069714;28;20452;-70
2022/04/25 10:47:16;;;;;;;12.87;3.23;;;26.40;38.90;;;;;;5069337;28;20492;-69
2022/04/25 10:49:46;;;;;;;11.60;2.10;;;26.60;38.50;;;;;;5069280;28;20448;-69
2022/04/25 10:53:01;;;;;;;13.20;2.30;;;26.20;37.00;;;;;;5044747;28;20542;-69
2022/04/25 10:55:43;;;;;;;14.53;2.63;;;26.30;37.30;;;;;;5029587;28;20454;-70
2022/04/25 10:58:13;;;;;;;18.37;2.90;;;26.70;37.00;;;;;;5029445;28;20466;-70
2022/04/25 11:00:56;;;;;;;12.43;3.30;;;26.80;37.00;;;;;;5029645;28;20459;-70
2022/04/25 11:03:29;;;;;;;11.23;2.40;;;26.70;38.00;;;;;;5029328;28;20557;-69
2022/04/25 11:06:06;;;;;;;13.73;2.47;;;26.50;37.50;;;;;;5029480;28;20461;-69
2022/04/25 11:08:50;;;;;;;12.10;2.70;;;26.50;37.40;;;;;;5029186;28;20486;-68
2022/04/25 11:11:20;;;;;;;11.13;2.80;;;26.60;37.80;;;;;;5029382;28;20459;-69
2022/04/25 11:14:23;;;;;;;16.93;2.80;;;26.70;37.70;;;;;;5028842;28;21451;-70
2022/04/25 11:17:15;;;;;;;13.50;3.40;;;26.50;35.80;;;;;;5029274;28;20504;-70
2022/04/25 11:19:45;;;;;;;8.43;2.23;;;26.50;36.90;;;;;;5018809;28;20462;-69
2022/04/25 11:22:46;;;;;;;20.93;2.90;;;26.90;36.40;;;;;;5029167;28;20483;-68
2022/04/25 11:25:42;;;;;;;13.07;2.37;;;26.90;35.70;;;;;;5029143;28;20455;-69
2022/04/25 11:28:12;;;;;;;16.23;2.80;;;26.50;35.90;;;;;;5029052;28;21014;-69
2022/04/25 11:30:40;;;;;;;12.87;2.57;;;26.40;36.90;;;;;;5028535;28;20455;-70
2022/04/25 11:33:08;;;;;;;12.33;2.30;;;26.60;36.70;;;;;;5028987;28;20478;-70
2022/04/25 11:35:36;;;;;;;8.20;2.60;;;26.60;36.40;;;;;;5028865;28;20489;-69
2022/04/25 11:38:03;;;;;;;14.57;2.67;;;26.40;36.40;;;;;;5029152;28;20489;-68
2022/04/25 11:40:30;;;;;;;10.70;2.00;;;26.10;36.40;;;;;;5029036;28;20451;-70
2022/04/25 11:43:03;;;;;;;10.13;2.63;;;26.00;36.50;;;;;;5028531;28;20474;-69
2022/04/25 11:45:31;;;;;;;16.10;3.33;;;26.40;35.30;;;;;;5028672;28;20462;-69
2022/04/25 11:47:59;;;;;;;10.63;3.10;;;27.00;36.00;;;;;;5028860;28;20490;-70
2022/04/25 11:50:27;;;;;;;14.47;3.07;;;27.30;33.90;;;;;;5040075;28;20512;-70
2022/04/25 11:52:55;;;;;;;10.33;2.70;;;27.40;34.40;;;;;;5068812;28;20562;-70
2022/04/25 11:55:33;;;;;;;14.17;2.07;;;27.80;34.10;;;;;;5071756;28;20457;-70
2022/04/25 11:58:01;;;;;;;11.47;1.90;;;27.70;33.90;;;;;;5072515;28;20448;-69
2022/04/25 12:00:28;;;;;;;7.47;1.50;;;27.40;34.30;;;;;;5072328;28;20460;-69
2022/04/25 12:02:56;;;;;;;10.43;2.10;;;27.60;33.40;;;;;;5072205;28;20477;-69
2022/04/25 12:05:27;;;;;;;10.23;2.70;;;27.20;33.80;;;;;;5072418;28;20453;-70
2022/04/25 12:16:10;;;;;;;8.23;1.83;;;28.40;31.70;;;;;;5071160;28;20445;-69
2022/04/25 12:18:49;;;;;;;7.33;1.80;;;28.80;32.90;;;;;;5072182;28;20453;-68
2022/04/25 12:21:17;;;;;;;13.10;1.83;;;28.80;31.20;;;;;;5072080;28;20476;-68
2022/04/25 12:23:48;;;;;;;6.00;1.33;;;28.60;30.70;;;;;;5072133;28;20473;-71
2022/04/25 12:26:18;;;;;;;7.40;1.77;;;28.70;30.40;;;;;;5070814;28;20464;-74
2022/04/25 12:28:52;;;;;;;8.23;1.70;;;28.20;29.70;;;;;;5072433;28;20498;-75
2022/04/25 12:31:20;;;;;;;8.37;1.30;;;28.50;30.60;;;;;;5071961;28;20517;-68
2022/04/25 12:33:50;;;;;;;8.77;1.70;;;28.90;29.90;;;;;;5071745;28;20461;-72
2022/04/25 12:36:20;;;;;;;9.33;1.50;;;29.20;29.40;;;;;;5071994;28;20449;-71
2022/04/25 12:38:54;;;;;;;5.20;1.67;;;28.60;28.70;;;;;;5071879;28;21039;-71
2022/04/25 12:41:23;;;;;;;8.83;1.37;;;28.30;29.50;;;;;;5071759;28;20453;-70
2022/04/25 12:43:54;;;;;;;9.50;1.83;;;28.60;29.60;;;;;;5071389;28;20977;-68
2022/04/25 12:46:41;;;;;;;8.63;1.50;;;28.70;29.30;;;;;;5071869;28;20445;-69
2022/04/25 12:49:11;;;;;;;6.50;1.80;;;28.80;29.20;;;;;;5071840;28;20480;-68
2022/04/25 12:51:46;;;;;;;8.37;2.23;;;28.90;29.60;;;;;;5070809;28;20524;-68
2022/04/25 12:54:30;;;;;;;7.73;2.13;;;29.10;30.00;;;;;;5071440;28;20564;-67
2022/04/25 12:57:15;;;;;;;9.30;2.00;;;28.90;29.70;;;;;;5071213;28;20452;-69
2022/04/25 12:59:45;;;;;;;7.40;1.90;;;29.40;29.90;;;;;;5070416;28;20464;-69
2022/04/25 13:02:14;;;;;;;14.60;2.50;;;29.90;29.90;;;;;;5071082;28;20945;-70
2022/04/25 13:04:51;;;;;;;10.17;2.10;;;30.60;30.10;;;;;;5071042;28;20559;-68
2022/04/25 13:07:19;;;;;;;9.50;1.40;;;30.40;29.50;;;;;;5071146;28;20453;-67
2022/04/25 13:09:46;;;;;;;8.60;1.63;;;30.50;28.70;;;;;;5071216;28;20580;-68
2022/04/25 13:12:15;;;;;;;8.03;1.87;;;30.90;30.00;;;;;;5070999;28;20929;-68
2022/04/25 13:14:44;;;;;;;6.30;1.47;;;31.50;29.60;;;;;;5070578;28;20473;-68
2022/04/25 13:17:12;;;;;;;10.50;1.70;;;31.00;28.40;;;;;;5071017;28;20453;-67
2022/04/25 13:19:39;;;;;;;7.77;2.00;;;30.10;28.90;;;;;;5071276;28;20475;-70
2022/04/25 13:22:06;;;;;;;7.73;1.47;;;30.20;29.10;;;;;;5071024;28;20459;-68
2022/04/25 13:24:33;;;;;;;8.37;1.30;;;30.20;28.90;;;;;;5070922;28;20477;-69
2022/04/25 13:27:00;;;;;;;10.73;1.90;;;30.40;29.10;;;;;;5085722;28;20448;-70
2022/04/25 13:29:27;;;;;;;8.73;2.20;;;30.70;29.10;;;;;;5090288;28;20491;-70